Nearby METAR Reports

 

RPLL - Ninoy Aquino Int, Philippines
Distance from station: S 15km
Updated: 09/18/2021 11:00pm
Mostly cloudy
Mostly cloudy
 Wind from varies
Wind: varies 4 km/h
Temperature: 29°C
Heat Index: 34°C
Dew Point: 25°C
Humidity: 79%
Barometer: 1010 hPa
Clouds: Mostly cloudy
Visibility: 10 km
Cloud details: Few Clouds 762 m
Mostly cloudy 7620 m
2021/09/18 15:00 RPLL 181500Z VRB02KT 9999 FEW025 BKN250 29/25 Q1010 NOSIG RMK A2983
RPLC - Angeles/Pampanga, Philippines
Distance from station: NW 71km
Updated: 07/06/2021 3:00pm
NOT Current
Mostly cloudy
Mostly cloudy
 Wind from S
Wind: S 22 km/h
Temperature: 32°C
Heat Index: 38°C
Dew Point: 24°C
Humidity: 63%
Barometer: 1007 hPa
Clouds: Mostly cloudy
Visibility: 9 km
Cloud details: Few Clouds 610 m
Mostly cloudy 9144 m
2021/07/06 07:00 RPLC 060700Z 18012KT 9000 FEW020 BKN300 32/24 Q1007 NOSIG RMK A2974
 
RPLB - Olongapo/Subic, Philippines
Distance from station: WNW 78km
Updated: 09/18/2021 11:00pm
Mostly cloudy
Mostly cloudy
 Wind from ENE
Wind: ENE 13 km/h
Temperature: 27°C
Heat Index: 31°C
Dew Point: 24°C
Humidity: 84%
Barometer: 1011 hPa
Clouds: Mostly cloudy
Visibility: 10 km
Cloud details: Few Clouds 549 m
Few Clouds 610 m
Mostly cloudy 2438 m
2021/09/18 15:00 RPLB 181500Z 07007KT 9999 FEW018CB FEW020 BKN080 27/24 Q1011 RMK A2985 CB/FRQ LTG NW
RPMR - Romblon/Tablas I, Philippines
Distance from station: SSE 270km
Updated: 07/06/2021 3:00pm
NOT Current
Nearby showers, Mostly cloudy
Nearby showers, Mostly cloudy
 Wind from S
Wind: S 17 km/h
Temperature: 31°C
Heat Index: 36°C
Dew Point: 23°C
Humidity: 62%
Barometer: 1007 hPa
Summary: Nearby Showers
Clouds: Mostly cloudy
Visibility: 10 km
Cloud details: Few Clouds 549 m
Mostly cloudy 2438 m
2021/07/06 07:00 RPMR 060700Z 17009KT 110V180 9999 VCSH FEW018CB BKN080 31/23 Q1007 RMK A2974 CB NNW VCSH NNW SW
 
RPVK - Kalibo/Panay Isl, Philippines
Distance from station: SSE 364km
Updated: 05/31/2021 4:00am
NOT Current
Clear
Clear
 Wind from SW
Wind: SW 6 km/h
Temperature: 25°C
Dew Point: 24°C
Humidity: 94%
Barometer: 1006 hPa
Clouds: Clear
Visibility: 0 km
2021/05/30 20:00 RPVK 302000Z AUTO 22003KT 190V270 0000 R23/0050N NCD 25/24 Q1006
RPLI - Laoag Intl(Ph-Ar, Philippines
Distance from station: N 394km
Updated: 09/18/2021 11:00pm
Mostly cloudy
Mostly cloudy
 Wind from ESE
Wind: ESE 7 km/h
Temperature: 28°C
Heat Index: 34°C
Dew Point: 27°C
Humidity: 94%
Barometer: 1011 hPa
Clouds: Mostly cloudy
Visibility: 10 km
Cloud details: Few Clouds 549 m
Mostly cloudy 8839 m
2021/09/18 15:00 RPLI 181500Z 12004KT 9999 FEW018 BKN290 28/27 Q1011 NOSIG RMK A2985
 
RPVM - Mactan-Cebu, Philippines
Distance from station: SE 582km
Updated: 09/18/2021 11:00pm
Partly cloudy
Partly cloudy
 Wind from WNW
Wind: WNW 6 km/h
Temperature: 26°C
Dew Point: 23°C
Humidity: 84%
Barometer: 1011 hPa
Clouds: Partly cloudy
Visibility: 10 km
Cloud details: Few Clouds 549 m
Partly cloudy 3048 m
2021/09/18 15:00 RPVM 181500Z 29003KT 9999 FEW018CB SCT100 26/23 Q1011 RMK A2985 CB E/S
RPVP - Puerto Princesa, Philippines
Distance from station: SSW 598km
Updated: 07/06/2021 3:00pm
NOT Current
Overcast
Overcast
 Wind from S
Wind: S 74 km/h
Temperature: 28°C
Heat Index: 32°C
Dew Point: 24°C
Humidity: 79%
Barometer: 1007 hPa
Clouds: Overcast
Visibility: 10 km
Cloud details: Partly cloudy 579 m
Overcast 2438 m
2021/07/06 07:00 RPVP 060700Z 18040KT 9999 SCT019 OVC080 28/24 Q1007 RMK A2974
 
RPVD - Dumaguete/Negros, Philippines
Distance from station: SSE 643km
Updated: 07/06/2021 3:00pm
NOT Current
Nearby showers, Few clouds
Nearby showers, Few clouds
 Wind from E
Wind: E 7 km/h
Summary: Nearby Showers
Clouds: Few Clouds
Visibility: 10 km
Cloud details: Few Clouds 427 m
Few Clouds 457 m
2021/07/06 07:00 RPVD 060700Z 09004KT 9999 VCSH FEW014CB FEW015 OVC20 30/25 Q1007 RMK A2974 CB VCSH NE NW
RPMZ - Zamboanga (civ/A, Philippines
Distance from station: S 868km
Updated: 09/18/2021 11:00pm
Mostly cloudy
Mostly cloudy
 Wind from varies
Wind: varies 4 km/h
Temperature: 26°C
Dew Point: 25°C
Humidity: 94%
Barometer: 1012 hPa
Clouds: Mostly cloudy
Visibility: 10 km
Cloud details: Few Clouds 518 m
Mostly cloudy 2743 m
2021/09/18 15:00 RPMZ 181500Z VRB02KT 9999 FEW017 BKN090 26/25 Q1012 RMK A2988
 
RPMD - Davao/Francisco, Philippines
Distance from station: SSE 980km
Updated: 09/18/2021 11:00pm
Overcast
Overcast
 Wind from N
Wind: N 6 km/h
Temperature: 24°C
Dew Point: 24°C
Humidity: 100%
Barometer: 1012 hPa
Clouds: Overcast
Visibility: 10 km
Cloud details: Partly cloudy 488 m
Mostly cloudy 2743 m
Overcast 7925 m
2021/09/18 15:00 RPMD 181500Z 35003KT 310V030 9999 SCT016 BKN090 OVC260 24/24 Q1012 RESHRA RMK A2988